Time;durP1;ratioP1;P1;durP2;ratioP2;P2;SDS_P1;SDS_P2;PMS_P1;PMS_P2;Temp;Humidity;BMP_temperature;BMP_pressure;BME280_temperature;BME280_humidity;BME280_pressure;Samples;Min_cycle;Max_cycle;Signal;HPM_P1;HPM_P2
2021/12/01 00:00:13;;;;;;;19.63;13.57;;;;;;;;;;5054449;28;20542;-76
2021/12/01 00:02:38;;;;;;;18.07;13.80;;;;;;;;;;5051942;28;20675;-76
2021/12/01 00:05:04;;;;;;;17.87;12.83;;;;;;;;;;5049990;28;20183;-75
2021/12/01 00:07:30;;;;;;;18.07;12.33;;;;;;;;;;5050335;28;20815;-75
2021/12/01 00:09:55;;;;;;;18.47;12.00;;;;;;;;;;5050888;28;20184;-75
2021/12/01 00:12:20;;;;;;;21.70;13.10;;;;;;;;;;5049831;28;20209;-76
2021/12/01 00:14:46;;;;;;;17.37;12.43;;;;;;;;;;5054739;28;20185;-77
2021/12/01 00:17:12;;;;;;;17.27;11.43;;;;;;;;;;5052236;28;20180;-76
2021/12/01 00:19:38;;;;;;;17.73;12.50;;;;;;;;;;5049069;28;20212;-78
2021/12/01 00:22:03;;;;;;;18.50;12.17;;;;;;;;;;5054085;28;20844;-75
2021/12/01 00:24:28;;;;;;;14.30;11.40;;;;;;;;;;5054392;28;20249;-75
2021/12/01 00:26:54;;;;;;;19.50;11.30;;;;;;;;;;5054969;28;20315;-75
2021/12/01 00:29:19;;;;;;;15.23;10.23;;;;;;;;;;5053979;28;20177;-77
2021/12/01 00:31:44;;;;;;;17.57;11.47;;;;;;;;;;5053827;28;20183;-76
2021/12/01 00:34:09;;;;;;;12.30;9.20;;;;;;;;;;5054583;28;20574;-76
2021/12/01 00:36:35;;;;;;;13.23;9.03;;;;;;;;;;5053431;28;20169;-76
2021/12/01 00:39:00;;;;;;;14.43;8.57;;;;;;;;;;5055517;28;20216;-76
2021/12/01 00:41:25;;;;;;;12.07;8.37;;;;;;;;;;5053507;28;20181;-77
2021/12/01 00:43:51;;;;;;;13.33;8.80;;;;;;;;;;5053695;28;20197;-76
2021/12/01 00:46:24;;;;;;;10.50;8.10;;;;;;;;;;5043498;28;20181;-75
2021/12/01 00:48:50;;;;;;;10.73;7.43;;;;;;;;;;5058827;28;20711;-75
2021/12/01 00:51:16;;;;;;;9.47;7.03;;;;;;;;;;5056486;28;20939;-74
2021/12/01 00:53:42;;;;;;;11.00;7.80;;;;;;;;;;5053979;28;20424;-74
2021/12/01 00:56:07;;;;;;;9.80;6.50;;;;;;;;;;5053148;28;20189;-75
2021/12/01 00:58:32;;;;;;;10.93;7.00;;;;;;;;;;5046471;28;20231;-76
2021/12/01 01:01:00;;;;;;;12.53;7.47;;;;;;;;;;5057603;28;20173;-75
2021/12/01 01:03:26;;;;;;;9.87;6.70;;;;;;;;;;5052747;28;20200;-74
2021/12/01 01:05:52;;;;;;;7.87;6.33;;;;;;;;;;5035729;28;20177;-74
2021/12/01 01:08:17;;;;;;;9.50;5.30;;;;;;;;;;5056607;28;20188;-76
2021/12/01 01:18:39;;;;;;;4.27;3.40;;;;;;;;;;5053651;28;20255;-76
2021/12/01 01:21:04;;;;;;;4.60;3.57;;;;;;;;;;5054965;28;20185;-76
2021/12/01 01:23:30;;;;;;;6.13;3.77;;;;;;;;;;5053150;28;20215;-76
2021/12/01 01:25:56;;;;;;;4.17;2.83;;;;;;;;;;5054705;28;20176;-76
2021/12/01 01:28:21;;;;;;;6.00;4.13;;;;;;;;;;5054590;28;20702;-77
2021/12/01 01:30:46;;;;;;;5.73;3.93;;;;;;;;;;5053805;28;20173;-76
2021/12/01 01:33:11;;;;;;;4.70;4.20;;;;;;;;;;5051793;28;20196;-76
2021/12/01 01:35:36;;;;;;;5.70;4.53;;;;;;;;;;5052953;28;20192;-76
2021/12/01 01:38:02;;;;;;;7.47;4.20;;;;;;;;;;5041521;28;20213;-76
2021/12/01 01:40:27;;;;;;;6.07;3.60;;;;;;;;;;5052851;28;20181;-77
2021/12/01 01:42:52;;;;;;;6.03;4.00;;;;;;;;;;5053756;28;20196;-75
2021/12/01 01:45:18;;;;;;;8.20;4.40;;;;;;;;;;5054507;28;20165;-76
2021/12/01 01:47:48;;;;;;;7.53;6.10;;;;;;;;;;5053164;28;20181;-76
2021/12/01 01:50:34;;;;;;;10.53;6.57;;;;;;;;;;5052987;28;20181;-76
2021/12/01 01:52:58;;;;;;;12.40;8.77;;;;;;;;;;5053929;28;20261;-76
2021/12/01 01:55:23;;;;;;;11.93;8.70;;;;;;;;;;5036810;28;20190;-76
2021/12/01 01:57:49;;;;;;;12.47;8.27;;;;;;;;;;5051371;28;20224;-76
2021/12/01 02:00:14;;;;;;;14.40;8.33;;;;;;;;;;5051918;28;20173;-76
2021/12/01 02:02:39;;;;;;;9.27;6.60;;;;;;;;;;5052700;28;20200;-75
2021/12/01 02:05:05;;;;;;;11.93;5.33;;;;;;;;;;5054932;28;20172;-76
2021/12/01 02:07:30;;;;;;;7.90;5.20;;;;;;;;;;5053942;28;20181;-76
2021/12/01 02:09:55;;;;;;;7.53;5.30;;;;;;;;;;5040125;28;20572;-75
2021/12/01 02:12:20;;;;;;;8.60;5.30;;;;;;;;;;5055650;28;20209;-76
2021/12/01 02:14:45;;;;;;;9.17;5.53;;;;;;;;;;5055127;28;20191;-75
2021/12/01 02:17:11;;;;;;;6.40;4.87;;;;;;;;;;5049699;28;20173;-75
2021/12/01 02:19:37;;;;;;;6.23;4.70;;;;;;;;;;5039932;28;20335;-76
2021/12/01 02:22:02;;;;;;;6.67;4.97;;;;;;;;;;5051169;28;20184;-74
2021/12/01 02:24:28;;;;;;;7.80;4.47;;;;;;;;;;5050384;28;20185;-77
2021/12/01 02:26:53;;;;;;;6.10;4.33;;;;;;;;;;5052419;28;20181;-76
2021/12/01 02:29:20;;;;;;;6.73;4.27;;;;;;;;;;5036791;28;20188;-76
2021/12/01 02:31:46;;;;;;;6.33;4.43;;;;;;;;;;5032659;28;20609;-76
2021/12/01 02:34:14;;;;;;;7.17;5.30;;;;;;;;;;5050427;28;20288;-76
2021/12/01 02:36:44;;;;;;;8.03;5.27;;;;;;;;;;5053267;28;20208;-76
2021/12/01 02:39:11;;;;;;;6.47;4.73;;;;;;;;;;5049824;28;20221;-76
2021/12/01 02:41:37;;;;;;;5.63;4.80;;;;;;;;;;5050673;28;20169;-76
2021/12/01 02:44:04;;;;;;;7.57;5.57;;;;;;;;;;5051699;28;20674;-74
2021/12/01 02:46:29;;;;;;;8.43;5.97;;;;;;;;;;5054639;28;20238;-74
2021/12/01 02:48:55;;;;;;;11.60;7.30;;;;;;;;;;5058702;28;20180;-76
2021/12/01 02:51:25;;;;;;;10.33;6.43;;;;;;;;;;5053144;28;20181;-76
2021/12/01 02:53:50;;;;;;;9.97;5.67;;;;;;;;;;5050192;28;20220;-76
2021/12/01 02:56:16;;;;;;;9.70;6.57;;;;;;;;;;5049112;28;20500;-75
2021/12/01 02:58:41;;;;;;;9.53;6.47;;;;;;;;;;5048372;28;21618;-76
2021/12/01 03:01:14;;;;;;;11.93;7.10;;;;;;;;;;5039752;28;20915;-76
2021/12/01 03:03:40;;;;;;;11.47;7.90;;;;;;;;;;5049842;28;20211;-75
2021/12/01 03:06:05;;;;;;;12.60;7.43;;;;;;;;;;5049295;28;20413;-75
2021/12/01 03:08:31;;;;;;;8.87;6.67;;;;;;;;;;5049429;28;20678;-75
2021/12/01 03:10:57;;;;;;;11.63;6.97;;;;;;;;;;5051879;28;20192;-75
2021/12/01 03:13:23;;;;;;;9.30;6.30;;;;;;;;;;5049706;28;20265;-76
2021/12/01 03:15:48;;;;;;;6.80;5.63;;;;;;;;;;5055516;28;20270;-73
2021/12/01 03:18:14;;;;;;;9.67;6.03;;;;;;;;;;5048499;28;20205;-74
2021/12/01 03:20:40;;;;;;;6.27;5.67;;;;;;;;;;5051664;28;20188;-75
2021/12/01 03:23:06;;;;;;;9.13;5.60;;;;;;;;;;5049096;28;20639;-77
2021/12/01 03:25:31;;;;;;;6.43;5.73;;;;;;;;;;5049995;28;20192;-76
2021/12/01 03:27:56;;;;;;;8.93;5.23;;;;;;;;;;5049006;28;20185;-76
2021/12/01 03:30:22;;;;;;;7.83;5.00;;;;;;;;;;5048608;28;20264;-77
2021/12/01 03:32:47;;;;;;;7.57;5.83;;;;;;;;;;5038364;28;20341;-77
2021/12/01 03:35:13;;;;;;;7.27;5.50;;;;;;;;;;5048643;28;20664;-76
2021/12/01 03:37:40;;;;;;;9.87;5.20;;;;;;;;;;5040048;28;20222;-77
2021/12/01 03:40:06;;;;;;;6.07;5.47;;;;;;;;;;5052855;28;20456;-76
2021/12/01 03:42:31;;;;;;;9.93;4.70;;;;;;;;;;5036806;28;20196;-76
2021/12/01 03:44:57;;;;;;;6.17;4.43;;;;;;;;;;5051736;28;20184;-75
2021/12/01 03:47:22;;;;;;;6.60;4.47;;;;;;;;;;5049581;28;20203;-74
2021/12/01 03:49:48;;;;;;;5.03;3.80;;;;;;;;;;5049942;28;20788;-75
2021/12/01 03:52:16;;;;;;;5.77;3.60;;;;;;;;;;5050420;28;20384;-74
2021/12/01 03:54:42;;;;;;;4.93;3.93;;;;;;;;;;5047446;28;20564;-75
2021/12/01 03:57:07;;;;;;;5.87;3.10;;;;;;;;;;5030703;28;20177;-78
2021/12/01 03:59:32;;;;;;;5.33;3.57;;;;;;;;;;5048715;28;20682;-74
2021/12/01 04:01:57;;;;;;;4.83;3.40;;;;;;;;;;5048024;28;20177;-74
2021/12/01 04:04:22;;;;;;;4.03;3.47;;;;;;;;;;5046950;28;20184;-74
2021/12/01 04:06:48;;;;;;;5.83;4.07;;;;;;;;;;5040821;28;20184;-74
2021/12/01 04:09:13;;;;;;;4.73;4.03;;;;;;;;;;5049207;28;20201;-74
2021/12/01 04:11:38;;;;;;;5.23;4.30;;;;;;;;;;5049491;28;20196;-74
2021/12/01 04:14:03;;;;;;;4.43;4.00;;;;;;;;;;5052558;28;20211;-74
2021/12/01 04:16:28;;;;;;;4.40;4.00;;;;;;;;;;5053205;28;20666;-75
2021/12/01 04:18:54;;;;;;;5.40;4.27;;;;;;;;;;5049278;28;20216;-74
2021/12/01 04:21:20;;;;;;;4.00;3.60;;;;;;;;;;5052063;28;20208;-75
2021/12/01 04:23:46;;;;;;;5.80;4.00;;;;;;;;;;5048228;28;20204;-76
2021/12/01 04:26:15;;;;;;;4.17;3.13;;;;;;;;;;5050184;28;20191;-75
2021/12/01 04:28:40;;;;;;;3.40;3.10;;;;;;;;;;5059503;28;20185;-75
2021/12/01 04:31:05;;;;;;;5.50;4.03;;;;;;;;;;5034901;28;20498;-74
2021/12/01 04:33:30;;;;;;;5.20;4.70;;;;;;;;;;5052298;28;20212;-75
2021/12/01 04:35:56;;;;;;;5.73;4.37;;;;;;;;;;5055836;28;20275;-74
2021/12/01 04:38:21;;;;;;;6.80;4.80;;;;;;;;;;5037875;28;20204;-75
2021/12/01 04:40:46;;;;;;;8.67;5.67;;;;;;;;;;5061079;28;20181;-75
2021/12/01 04:43:12;;;;;;;6.27;5.30;;;;;;;;;;5055641;28;20192;-75
2021/12/01 04:45:41;;;;;;;7.63;6.67;;;;;;;;;;5059147;28;20184;-76
2021/12/01 04:48:07;;;;;;;6.40;5.77;;;;;;;;;;5053880;28;20188;-76
2021/12/01 04:50:32;;;;;;;8.13;7.33;;;;;;;;;;5051025;28;20189;-76
2021/12/01 04:52:58;;;;;;;8.40;7.53;;;;;;;;;;5038807;28;20331;-76
2021/12/01 04:55:23;;;;;;;7.77;7.03;;;;;;;;;;5040544;28;20651;-76
2021/12/01 04:57:49;;;;;;;10.73;7.63;;;;;;;;;;5050195;28;20233;-78
2021/12/01 05:00:16;;;;;;;7.97;7.20;;;;;;;;;;5047514;28;20598;-74
2021/12/01 05:02:42;;;;;;;8.67;7.87;;;;;;;;;;5030527;28;21311;-75
2021/12/01 05:05:07;;;;;;;8.20;7.40;;;;;;;;;;5048033;28;20188;-75
2021/12/01 05:07:33;;;;;;;8.43;7.53;;;;;;;;;;5051983;28;20276;-75
2021/12/01 05:09:58;;;;;;;9.03;8.17;;;;;;;;;;5052989;28;20185;-75
2021/12/01 05:12:24;;;;;;;8.50;7.60;;;;;;;;;;5053456;28;20674;-75
2021/12/01 05:14:49;;;;;;;8.70;7.90;;;;;;;;;;5054522;28;20205;-76
2021/12/01 05:17:14;;;;;;;8.77;7.90;;;;;;;;;;5055321;28;20175;-75
2021/12/01 05:19:39;;;;;;;8.17;7.17;;;;;;;;;;5051747;28;20350;-75
2021/12/01 05:22:05;;;;;;;9.40;8.47;;;;;;;;;;5053353;28;20383;-75
2021/12/01 05:24:30;;;;;;;8.93;8.03;;;;;;;;;;5034187;28;20930;-75
2021/12/01 05:26:55;;;;;;;9.10;7.93;;;;;;;;;;5056969;28;20192;-76
2021/12/01 05:29:23;;;;;;;8.27;7.37;;;;;;;;;;5051650;28;20189;-75
2021/12/01 05:31:48;;;;;;;8.10;7.20;;;;;;;;;;5052031;28;20736;-75
2021/12/01 05:34:14;;;;;;;7.63;6.80;;;;;;;;;;5039295;28;20217;-75
2021/12/01 05:36:39;;;;;;;7.20;6.30;;;;;;;;;;5050448;28;20185;-76
2021/12/01 05:39:05;;;;;;;10.93;7.70;;;;;;;;;;5050968;28;20292;-75
2021/12/01 05:41:30;;;;;;;7.80;7.00;;;;;;;;;;5050716;28;20429;-76
2021/12/01 05:43:55;;;;;;;7.67;6.53;;;;;;;;;;5055219;28;20220;-75
2021/12/01 05:46:20;;;;;;;7.57;6.33;;;;;;;;;;5045666;28;20525;-75
2021/12/01 05:48:46;;;;;;;8.20;7.23;;;;;;;;;;5071760;28;20230;-76
2021/12/01 05:51:11;;;;;;;8.73;7.47;;;;;;;;;;5069869;28;20176;-75
2021/12/01 05:53:37;;;;;;;10.00;7.70;;;;;;;;;;5064940;28;20212;-75
2021/12/01 05:56:03;;;;;;;9.73;7.37;;;;;;;;;;5068001;28;20189;-79
2021/12/01 05:58:28;;;;;;;9.27;7.57;;;;;;;;;;5068821;28;20592;-75
2021/12/01 06:00:53;;;;;;;7.97;6.50;;;;;;;;;;5042307;28;20181;-75
2021/12/01 06:03:18;;;;;;;9.10;6.53;;;;;;;;;;5053250;28;20221;-76
2021/12/01 06:05:44;;;;;;;9.23;6.43;;;;;;;;;;5034246;28;20616;-76
2021/12/01 06:08:09;;;;;;;8.83;6.23;;;;;;;;;;5057035;28;20184;-76
2021/12/01 06:10:34;;;;;;;8.10;6.90;;;;;;;;;;5054481;28;20180;-77
2021/12/01 06:12:59;;;;;;;7.70;6.17;;;;;;;;;;5051771;28;20547;-77
2021/12/01 06:15:25;;;;;;;8.10;5.97;;;;;;;;;;5060080;28;20177;-75
2021/12/01 06:17:50;;;;;;;7.17;6.20;;;;;;;;;;5052693;28;20261;-75
2021/12/01 06:20:16;;;;;;;7.13;6.07;;;;;;;;;;5051319;28;20185;-75
2021/12/01 06:22:42;;;;;;;7.43;5.17;;;;;;;;;;5073427;28;20288;-75
2021/12/01 06:25:07;;;;;;;8.53;6.30;;;;;;;;;;5042101;28;20297;-75
2021/12/01 06:27:33;;;;;;;9.07;6.03;;;;;;;;;;5054177;28;20767;-75
2021/12/01 06:29:58;;;;;;;9.27;5.97;;;;;;;;;;5052783;28;20662;-75
2021/12/01 06:32:23;;;;;;;7.43;5.77;;;;;;;;;;5051210;28;20253;-75
2021/12/01 06:34:48;;;;;;;8.83;6.70;;;;;;;;;;5053171;28;20188;-77
2021/12/01 06:37:15;;;;;;;9.43;6.90;;;;;;;;;;5055006;28;20230;-74
2021/12/01 06:39:40;;;;;;;9.33;6.77;;;;;;;;;;5040402;28;20682;-75
2021/12/01 06:42:05;;;;;;;9.50;6.73;;;;;;;;;;5039076;28;20173;-75
2021/12/01 06:44:31;;;;;;;11.43;7.77;;;;;;;;;;5055257;28;20271;-76
2021/12/01 06:46:56;;;;;;;8.47;7.03;;;;;;;;;;5051801;28;20169;-76
2021/12/01 06:49:21;;;;;;;8.97;6.03;;;;;;;;;;5041397;28;20569;-76
2021/12/01 06:51:47;;;;;;;8.80;6.53;;;;;;;;;;5039514;28;20237;-76
2021/12/01 06:54:12;;;;;;;11.23;7.07;;;;;;;;;;5051534;28;20561;-76
2021/12/01 06:56:38;;;;;;;9.40;7.07;;;;;;;;;;5052061;28;20209;-76
2021/12/01 06:59:03;;;;;;;11.60;8.40;;;;;;;;;;5053973;28;20283;-77
2021/12/01 07:01:28;;;;;;;9.03;5.97;;;;;;;;;;5041152;28;20184;-76
2021/12/01 07:03:53;;;;;;;7.83;5.57;;;;;;;;;;5052701;28;20212;-76
2021/12/01 07:06:18;;;;;;;7.90;5.80;;;;;;;;;;5055684;28;20177;-77
2021/12/01 07:08:44;;;;;;;13.73;7.13;;;;;;;;;;5052193;28;20211;-77
2021/12/01 07:11:09;;;;;;;6.50;4.80;;;;;;;;;;5054464;28;20188;-76
2021/12/01 07:13:35;;;;;;;5.73;4.30;;;;;;;;;;5040085;28;20807;-76
2021/12/01 07:16:01;;;;;;;4.37;3.97;;;;;;;;;;5056729;28;20244;-74
2021/12/01 07:18:26;;;;;;;4.70;4.23;;;;;;;;;;5039868;28;20242;-74
2021/12/01 07:20:51;;;;;;;6.17;3.23;;;;;;;;;;5051869;28;20234;-73
2021/12/01 07:23:16;;;;;;;3.47;3.17;;;;;;;;;;5051353;28;20209;-74
2021/12/01 07:25:41;;;;;;;3.33;3.03;;;;;;;;;;5054259;28;20205;-77
2021/12/01 07:28:07;;;;;;;5.47;3.90;;;;;;;;;;5052071;28;20183;-75
2021/12/01 07:30:35;;;;;;;3.97;3.50;;;;;;;;;;5051572;28;20188;-75
2021/12/01 07:33:00;;;;;;;4.73;4.00;;;;;;;;;;5051986;28;20196;-75
2021/12/01 07:35:25;;;;;;;5.40;4.30;;;;;;;;;;5050756;28;20563;-74
2021/12/01 07:37:50;;;;;;;5.60;4.10;;;;;;;;;;5053622;28;20172;-75
2021/12/01 07:40:16;;;;;;;5.77;4.70;;;;;;;;;;5054685;28;20189;-75
2021/12/01 07:42:42;;;;;;;7.67;4.97;;;;;;;;;;5050195;28;20716;-76
2021/12/01 07:45:07;;;;;;;6.30;4.63;;;;;;;;;;5051163;28;20196;-77
2021/12/01 07:47:33;;;;;;;5.83;4.40;;;;;;;;;;5050563;28;20195;-76
2021/12/01 07:49:58;;;;;;;7.33;5.03;;;;;;;;;;5040609;28;20180;-75
2021/12/01 07:52:24;;;;;;;9.77;5.37;;;;;;;;;;5038764;28;20640;-76
2021/12/01 07:54:49;;;;;;;10.17;5.70;;;;;;;;;;5050546;28;20287;-75
2021/12/01 07:57:15;;;;;;;10.73;6.00;;;;;;;;;;5049523;28;21424;-75
2021/12/01 07:59:40;;;;;;;9.37;5.67;;;;;;;;;;5039461;28;20226;-75
2021/12/01 08:02:05;;;;;;;10.60;6.00;;;;;;;;;;5049771;28;20208;-77
2021/12/01 08:04:31;;;;;;;7.80;5.03;;;;;;;;;;5050348;28;20191;-76
2021/12/01 08:06:56;;;;;;;11.40;6.90;;;;;;;;;;5051860;28;20177;-76
2021/12/01 08:09:23;;;;;;;9.73;5.50;;;;;;;;;;5050750;28;21655;-76
2021/12/01 08:11:48;;;;;;;10.27;5.80;;;;;;;;;;5050056;28;20234;-75
2021/12/01 08:14:13;;;;;;;13.53;5.90;;;;;;;;;;5052280;28;20630;-76
2021/12/01 08:16:39;;;;;;;10.30;5.70;;;;;;;;;;5052508;28;20207;-76
2021/12/01 08:19:04;;;;;;;6.03;5.00;;;;;;;;;;5053525;28;20216;-75
2021/12/01 08:21:30;;;;;;;6.40;4.20;;;;;;;;;;5053047;28;20185;-75
2021/12/01 08:23:55;;;;;;;6.57;4.03;;;;;;;;;;5053137;28;20213;-73
2021/12/01 08:26:21;;;;;;;7.20;3.47;;;;;;;;;;5054865;28;20184;-74
2021/12/01 08:28:46;;;;;;;6.97;3.37;;;;;;;;;;5054977;28;21603;-74
2021/12/01 08:31:13;;;;;;;10.20;3.57;;;;;;;;;;5051598;28;20190;-73
2021/12/01 08:33:38;;;;;;;10.63;3.73;;;;;;;;;;5050161;28;20212;-73
2021/12/01 08:36:03;;;;;;;8.20;1.90;;;;;;;;;;5051449;28;21756;-73
2021/12/01 08:38:28;;;;;;;6.50;1.47;;;;;;;;;;5052266;28;20809;-73
2021/12/01 08:40:54;;;;;;;10.30;1.83;;;;;;;;;;5050946;28;20185;-73
2021/12/01 08:43:19;;;;;;;8.53;2.37;;;;;;;;;;5058456;28;20204;-73
2021/12/01 08:45:44;;;;;;;7.83;1.40;;;;;;;;;;5060206;28;20212;-73
2021/12/01 08:48:09;;;;;;;8.87;2.13;;;;;;;;;;5058333;28;20208;-72
2021/12/01 08:50:35;;;;;;;10.00;1.43;;;;;;;;;;5053383;28;20189;-72
2021/12/01 08:53:00;;;;;;;5.93;1.60;;;;;;;;;;5054851;28;20673;-73
2021/12/01 08:55:25;;;;;;;11.67;2.00;;;;;;;;;;5054020;28;20598;-73
2021/12/01 08:57:51;;;;;;;8.27;1.40;;;;;;;;;;5040635;28;20458;-71
2021/12/01 09:00:17;;;;;;;7.93;1.40;;;;;;;;;;5054537;28;20283;-74
2021/12/01 09:02:42;;;;;;;5.63;1.17;;;;;;;;;;5054652;28;20204;-71
2021/12/01 09:05:08;;;;;;;8.13;1.67;;;;;;;;;;5055866;28;20188;-72
2021/12/01 09:07:33;;;;;;;6.50;1.63;;;;;;;;;;5056942;28;20185;-72
2021/12/01 09:09:58;;;;;;;8.20;1.67;;;;;;;;;;5050480;28;20197;-72
2021/12/01 09:12:24;;;;;;;9.77;1.47;;;;;;;;;;5052547;28;20208;-73
2021/12/01 09:14:51;;;;;;;5.90;1.37;;;;;;;;;;5057593;28;20176;-73
2021/12/01 09:17:16;;;;;;;6.57;1.63;;;;;;;;;;5053440;28;20177;-73
2021/12/01 09:19:42;;;;;;;13.40;1.80;;;;;;;;;;5054042;28;20216;-73
2021/12/01 09:22:07;;;;;;;9.90;2.50;;;;;;;;;;5054083;28;20555;-71
2021/12/01 09:24:33;;;;;;;6.30;1.40;;;;;;;;;;5052725;28;20172;-72
2021/12/01 09:26:58;;;;;;;8.70;1.53;;;;;;;;;;5063430;28;20201;-71
2021/12/01 09:29:23;;;;;;;11.10;2.07;;;;;;;;;;5075739;28;20185;-72
2021/12/01 09:31:48;;;;;;;8.43;1.27;;;;;;;;;;5056663;28;20211;-71
2021/12/01 09:34:13;;;;;;;5.33;1.07;;;;;;;;;;5056680;28;20282;-70
2021/12/01 09:36:39;;;;;;;5.70;1.20;;;;;;;;;;5059443;28;20177;-73
2021/12/01 09:39:04;;;;;;;3.07;1.20;;;;;;;;;;5054521;28;20212;-72
2021/12/01 09:41:30;;;;;;;4.73;0.80;;;;;;;;;;5056019;28;20189;-73
2021/12/01 09:43:55;;;;;;;6.33;0.77;;;;;;;;;;5056358;28;20188;-71
2021/12/01 09:46:22;;;;;;;5.63;1.20;;;;;;;;;;5053666;28;20227;-71
2021/12/01 09:48:47;;;;;;;4.60;0.87;;;;;;;;;;5053249;28;20209;-72
2021/12/01 09:51:14;;;;;;;4.20;0.80;;;;;;;;;;5055828;28;20626;-70
2021/12/01 09:53:39;;;;;;;6.47;2.07;;;;;;;;;;5043552;28;20216;-71
2021/12/01 09:56:04;;;;;;;7.63;0.93;;;;;;;;;;5053032;28;20196;-71
2021/12/01 09:58:33;;;;;;;6.67;1.20;;;;;;;;;;5054381;28;20201;-70
2021/12/01 10:01:00;;;;;;;5.47;1.03;;;;;;;;;;5045257;28;20542;-71
2021/12/01 10:03:25;;;;;;;3.87;1.17;;;;;;;;;;5053885;28;20204;-69
2021/12/01 10:05:59;;;;;;;3.40;1.00;;;;;;;;;;5056466;28;20673;-74
2021/12/01 10:08:29;;;;;;;5.13;1.37;;;;;;;;;;5058532;28;20467;-71
2021/12/01 10:10:55;;;;;;;4.87;1.50;;;;;;;;;;5054495;28;20185;-70
2021/12/01 10:13:28;;;;;;;5.97;1.43;;;;;;;;;;5055097;28;20209;-71
2021/12/01 10:15:54;;;;;;;7.93;1.93;;;;;;;;;;5060904;28;20231;-72
2021/12/01 10:18:19;;;;;;;7.53;1.50;;;;;;;;;;5052516;28;21664;-70
2021/12/01 10:21:04;;;;;;;7.23;1.80;;;;;;;;;;5040399;28;20192;-72
2021/12/01 10:23:29;;;;;;;5.23;1.40;;;;;;;;;;5054797;28;20208;-72
2021/12/01 10:25:56;;;;;;;6.47;2.67;;;;;;;;;;5052366;28;20227;-73
2021/12/01 10:28:31;;;;;;;6.07;1.77;;;;;;;;;;5055206;28;20604;-73
2021/12/01 10:30:57;;;;;;;9.73;1.83;;;;;;;;;;5056466;28;20275;-73
2021/12/01 10:33:22;;;;;;;11.50;2.93;;;;;;;;;;5052123;28;20249;-71
2021/12/01 10:35:47;;;;;;;8.37;1.60;;;;;;;;;;5053293;28;20188;-73
2021/12/01 10:38:13;;;;;;;8.13;1.80;;;;;;;;;;5053153;28;20208;-73
2021/12/01 10:40:39;;;;;;;10.03;1.47;;;;;;;;;;5053532;28;20260;-72
2021/12/01 10:43:09;;;;;;;5.90;2.13;;;;;;;;;;5055080;28;20234;-71
2021/12/01 10:45:39;;;;;;;6.27;1.57;;;;;;;;;;5054500;28;20380;-70
2021/12/01 10:48:05;;;;;;;9.23;2.27;;;;;;;;;;5050575;28;20188;-71
2021/12/01 10:50:32;;;;;;;10.47;1.80;;;;;;;;;;5051213;28;20228;-72
2021/12/01 10:53:00;;;;;;;5.80;1.63;;;;;;;;;;5054191;28;20209;-73
2021/12/01 10:55:26;;;;;;;7.67;1.90;;;;;;;;;;5052931;28;20185;-72
2021/12/01 10:57:55;;;;;;;10.90;2.40;;;;;;;;;;5053066;28;20181;-72
2021/12/01 11:00:23;;;;;;;5.80;1.50;;;;;;;;;;5041926;28;20273;-72
2021/12/01 11:02:48;;;;;;;4.47;1.50;;;;;;;;;;5049528;28;20204;-72
2021/12/01 11:05:24;;;;;;;7.83;1.20;;;;;;;;;;5050721;28;20177;-72
2021/12/01 11:07:50;;;;;;;7.03;1.50;;;;;;;;;;5052079;28;20187;-72
2021/12/01 11:10:19;;;;;;;8.93;1.80;;;;;;;;;;5054276;28;20181;-73
2021/12/01 11:13:00;;;;;;;7.73;2.27;;;;;;;;;;5052016;28;20280;-74
2021/12/01 11:15:27;;;;;;;9.53;3.77;;;;;;;;;;5057773;28;20176;-70
2021/12/01 11:17:54;;;;;;;6.13;1.83;;;;;;;;;;5052066;28;21182;-71
2021/12/01 11:20:58;;;;;;;10.67;1.70;;;;;;;;;;5052627;28;20279;-71
2021/12/01 11:23:30;;;;;;;8.57;1.60;;;;;;;;;;4994033;28;20228;-73
2021/12/01 11:25:57;;;;;;;11.17;2.30;;;;;;;;;;4994991;28;20320;-72
2021/12/01 11:28:26;;;;;;;7.33;1.47;;;;;;;;;;5025118;28;20209;-71
2021/12/01 11:30:53;;;;;;;6.13;1.10;;;;;;;;;;5051937;28;20769;-72
2021/12/01 11:33:19;;;;;;;8.97;1.70;;;;;;;;;;5038609;28;20706;-71
2021/12/01 11:35:46;;;;;;;7.53;1.77;;;;;;;;;;5054500;28;20721;-72
2021/12/01 11:38:12;;;;;;;6.10;1.30;;;;;;;;;;5036815;28;20204;-73
2021/12/01 11:40:37;;;;;;;6.97;1.40;;;;;;;;;;5051139;28;20899;-70
2021/12/01 11:43:03;;;;;;;10.70;1.40;;;;;;;;;;5053603;28;20256;-70
2021/12/01 11:45:28;;;;;;;5.33;1.30;;;;;;;;;;5055797;28;20259;-70
2021/12/01 11:47:54;;;;;;;7.63;2.03;;;;;;;;;;5054674;28;20267;-71
2021/12/01 11:50:31;;;;;;;7.03;1.20;;;;;;;;;;5055655;28;20180;-73
2021/12/01 11:53:07;;;;;;;5.83;1.10;;;;;;;;;;5052948;28;20277;-72
2021/12/01 11:55:51;;;;;;;5.47;1.33;;;;;;;;;;5050256;28;20195;-73
2021/12/01 11:58:35;;;;;;;9.20;2.93;;;;;;;;;;5051676;28;21163;-71
2021/12/01 12:01:00;;;;;;;6.57;1.30;;;;;;;;;;5052220;28;20297;-70
2021/12/01 12:03:26;;;;;;;5.57;1.73;;;;;;;;;;5050212;28;20288;-76
2021/12/01 12:06:10;;;;;;;5.77;0.97;;;;;;;;;;5056358;28;20244;-75
2021/12/01 12:08:53;;;;;;;8.97;1.30;;;;;;;;;;5059322;28;20200;-76
2021/12/01 12:11:32;;;;;;;4.00;1.10;;;;;;;;;;5055385;28;20180;-75
2021/12/01 12:13:58;;;;;;;4.40;1.13;;;;;;;;;;5056364;28;20204;-75
2021/12/01 12:16:23;;;;;;;4.80;1.00;;;;;;;;;;5062901;28;20189;-76
2021/12/01 12:18:49;;;;;;;2.83;1.00;;;;;;;;;;5056302;28;20208;-74
2021/12/01 12:21:16;;;;;;;5.93;1.57;;;;;;;;;;5057221;28;20189;-75
2021/12/01 12:23:44;;;;;;;5.90;1.20;;;;;;;;;;5048924;28;20690;-75
2021/12/01 12:26:10;;;;;;;9.93;1.43;;;;;;;;;;5055704;28;20213;-75
2021/12/01 12:28:37;;;;;;;6.10;1.57;;;;;;;;;;5056726;28;20667;-76
2021/12/01 12:31:23;;;;;;;6.13;1.53;;;;;;;;;;5058666;28;20264;-75
2021/12/01 12:33:50;;;;;;;7.13;1.50;;;;;;;;;;5059964;28;20216;-75
2021/12/01 12:36:15;;;;;;;3.83;1.20;;;;;;;;;;5056995;28;20213;-74
2021/12/01 12:39:00;;;;;;;5.43;1.17;;;;;;;;;;5057049;28;20353;-75
2021/12/01 12:41:25;;;;;;;7.77;1.50;;;;;;;;;;5055899;28;20181;-75
2021/12/01 12:43:50;;;;;;;6.53;1.30;;;;;;;;;;5057480;28;20211;-75
2021/12/01 12:46:17;;;;;;;5.10;1.37;;;;;;;;;;5061689;28;20559;-77
2021/12/01 12:48:50;;;;;;;5.00;1.00;;;;;;;;;;5055535;28;20264;-75
2021/12/01 12:51:20;;;;;;;5.77;1.37;;;;;;;;;;5055104;28;20177;-75
2021/12/01 12:53:57;;;;;;;4.07;1.57;;;;;;;;;;5057489;28;20213;-75
2021/12/01 12:56:23;;;;;;;6.07;1.10;;;;;;;;;;5057247;28;20177;-76
2021/12/01 12:58:49;;;;;;;7.43;1.83;;;;;;;;;;5058749;28;20197;-76
2021/12/01 13:01:22;;;;;;;5.90;1.20;;;;;;;;;;5057208;28;20173;-76
2021/12/01 13:03:48;;;;;;;3.70;1.10;;;;;;;;;;5055019;28;20197;-75
2021/12/01 13:06:25;;;;;;;6.07;1.30;;;;;;;;;;5041834;28;20248;-75
2021/12/01 13:08:50;;;;;;;3.30;1.30;;;;;;;;;;5057634;28;20200;-73
2021/12/01 13:11:20;;;;;;;6.63;2.37;;;;;;;;;;5057754;28;20181;-76
2021/12/01 13:13:45;;;;;;;8.67;1.40;;;;;;;;;;5058720;28;20448;-74
2021/12/01 13:16:12;;;;;;;7.33;1.50;;;;;;;;;;5060383;28;20174;-75
2021/12/01 13:18:40;;;;;;;10.83;2.73;;;;;;;;;;5055872;28;20466;-75
2021/12/01 13:21:07;;;;;;;8.47;1.67;;;;;;;;;;5045754;28;20181;-74
2021/12/01 13:23:36;;;;;;;7.97;1.77;;;;;;;;;;5055972;28;21197;-74
2021/12/01 13:26:07;;;;;;;6.00;1.70;;;;;;;;;;5058997;28;20189;-75
2021/12/01 13:28:44;;;;;;;4.53;1.40;;;;;;;;;;5043754;28;20208;-77
2021/12/01 13:31:15;;;;;;;7.37;1.30;;;;;;;;;;5053944;28;20461;-76
2021/12/01 13:34:01;;;;;;;9.77;2.00;;;;;;;;;;5056198;28;20215;-77
2021/12/01 13:36:27;;;;;;;12.07;1.97;;;;;;;;;;5060458;28;20226;-76
2021/12/01 13:39:16;;;;;;;5.57;1.67;;;;;;;;;;5053935;28;20196;-75
2021/12/01 13:41:46;;;;;;;5.63;1.70;;;;;;;;;;5043785;28;20193;-74
2021/12/01 13:44:16;;;;;;;7.90;1.67;;;;;;;;;;5037242;28;20985;-73
2021/12/01 13:46:41;;;;;;;4.93;1.30;;;;;;;;;;5057158;28;20188;-74
2021/12/01 13:49:07;;;;;;;8.50;1.93;;;;;;;;;;5056564;28;20280;-74
2021/12/01 13:51:33;;;;;;;8.03;2.20;;;;;;;;;;5053550;28;20565;-74
2021/12/01 13:53:58;;;;;;;6.37;1.70;;;;;;;;;;5053608;28;20204;-74
2021/12/01 13:56:26;;;;;;;9.33;1.93;;;;;;;;;;5035244;28;20247;-75
2021/12/01 13:58:56;;;;;;;10.17;1.97;;;;;;;;;;5055858;28;20690;-75
2021/12/01 14:01:22;;;;;;;9.13;1.97;;;;;;;;;;5053581;28;20272;-74
2021/12/01 14:03:54;;;;;;;7.67;1.73;;;;;;;;;;5054252;28;20207;-75
2021/12/01 14:06:20;;;;;;;11.17;1.83;;;;;;;;;;5035198;28;20286;-74
2021/12/01 14:08:47;;;;;;;6.90;2.00;;;;;;;;;;5052693;28;21050;-75
2021/12/01 14:11:12;;;;;;;5.37;1.87;;;;;;;;;;5056039;28;20185;-76
2021/12/01 14:13:37;;;;;;;9.57;1.90;;;;;;;;;;5058131;28;20642;-75
2021/12/01 14:16:02;;;;;;;8.03;1.87;;;;;;;;;;5060704;28;20268;-75
2021/12/01 14:18:28;;;;;;;6.37;1.60;;;;;;;;;;5059475;28;20204;-76
2021/12/01 14:21:09;;;;;;;7.43;1.57;;;;;;;;;;5053814;28;20362;-74
2021/12/01 14:23:36;;;;;;;7.67;2.07;;;;;;;;;;5052446;28;20266;-75
2021/12/01 14:26:01;;;;;;;4.67;1.33;;;;;;;;;;5055538;28;20546;-74
2021/12/01 14:28:26;;;;;;;4.63;1.20;;;;;;;;;;5057214;28;20191;-74
2021/12/01 14:30:51;;;;;;;4.10;1.10;;;;;;;;;;5056173;28;20259;-74
2021/12/01 14:33:18;;;;;;;4.80;1.00;;;;;;;;;;5053908;28;20201;-74
2021/12/01 14:35:44;;;;;;;5.27;0.80;;;;;;;;;;5052906;28;20557;-74
2021/12/01 14:38:09;;;;;;;3.63;1.00;;;;;;;;;;5059306;28;20180;-76
2021/12/01 14:41:01;;;;;;;2.80;1.20;;;;;;;;;;5058456;28;20577;-74
2021/12/01 14:43:31;;;;;;;6.90;1.10;;;;;;;;;;5054820;28;20224;-74
2021/12/01 14:46:23;;;;;;;4.43;1.10;;;;;;;;;;5053871;28;20281;-74